sensor_id;sensor_type;location;lat;lon;timestamp;pressure;altitude;pressure_sealevel;temperature
7830;BMP180;3960;51.86894000;5.39848000;2023-05-28T00:01:58;102130.66;;;13.72
7830;BMP180;3960;51.86894000;5.39848000;2023-05-28T00:04:23;102146.59;;;13.74
7830;BMP180;3960;51.86894000;5.39848000;2023-05-28T00:06:50;102138.06;;;13.65
7830;BMP180;3960;51.86894000;5.39848000;2023-05-28T00:09:19;102129.53;;;13.56
7830;BMP180;3960;51.86894000;5.39848000;2023-05-28T00:11:47;102121.75;;;13.51
7830;BMP180;3960;51.86894000;5.39848000;2023-05-28T00:14:12;102116.72;;;13.46
7830;BMP180;3960;51.86894000;5.39848000;2023-05-28T00:16:37;102135.34;;;13.54
7830;BMP180;3960;51.86894000;5.39848000;2023-05-28T00:19:04;102133.44;;;13.51
7830;BMP180;3960;51.86894000;5.39848000;2023-05-28T00:21:29;102126.84;;;13.45
7830;BMP180;3960;51.86894000;5.39848000;2023-05-28T00:23:58;102129.94;;;13.47
7830;BMP180;3960;51.86894000;5.39848000;2023-05-28T00:26:23;102138.88;;;13.48
7830;BMP180;3960;51.86894000;5.39848000;2023-05-28T00:28:48;102129.19;;;13.40
7830;BMP180;3960;51.86894000;5.39848000;2023-05-28T00:31:14;102133.47;;;13.37
7830;BMP180;3960;51.86894000;5.39848000;2023-05-28T00:33:39;102130.75;;;13.30
7830;BMP180;3960;51.86894000;5.39848000;2023-05-28T00:36:04;102130.34;;;13.32
7830;BMP180;3960;51.86894000;5.39848000;2023-05-28T00:38:30;102112.50;;;13.20
7830;BMP180;3960;51.86894000;5.39848000;2023-05-28T00:40:55;102119.13;;;13.23
7830;BMP180;3960;51.86894000;5.39848000;2023-05-28T00:43:21;102136.19;;;13.27
7830;BMP180;3960;51.86894000;5.39848000;2023-05-28T00:45:49;102127.66;;;13.18
7830;BMP180;3960;51.86894000;5.39848000;2023-05-28T00:48:14;102136.59;;;13.18
7830;BMP180;3960;51.86894000;5.39848000;2023-05-28T00:50:42;102139.31;;;13.18
7830;BMP180;3960;51.86894000;5.39848000;2023-05-28T00:53:07;102136.22;;;13.16
7830;BMP180;3960;51.86894000;5.39848000;2023-05-28T00:55:34;102143.97;;;13.14
7830;BMP180;3960;51.86894000;5.39848000;2023-05-28T00:57:59;102136.22;;;13.10
7830;BMP180;3960;51.86894000;5.39848000;2023-05-28T01:00:31;102107.47;;;12.91
7830;BMP180;3960;51.86894000;5.39848000;2023-05-28T01:02:57;102137.78;;;13.07
7830;BMP180;3960;51.86894000;5.39848000;2023-05-28T01:05:22;102116.81;;;12.94
7830;BMP180;3960;51.86894000;5.39848000;2023-05-28T01:07:48;102127.69;;;12.94
7830;BMP180;3960;51.86894000;5.39848000;2023-05-28T01:10:13;102114.84;;;12.84
7830;BMP180;3960;51.86894000;5.39848000;2023-05-28T01:12:39;102133.91;;;12.94
7830;BMP180;3960;51.86894000;5.39848000;2023-05-28T01:15:07;102134.28;;;12.96
7830;BMP180;3960;51.86894000;5.39848000;2023-05-28T01:17:33;102132.34;;;12.90
7830;BMP180;3960;51.86894000;5.39848000;2023-05-28T01:19:58;102078.72;;;12.55
7830;BMP180;3960;51.86894000;5.39848000;2023-05-28T01:22:37;102131.56;;;12.89
7830;BMP180;3960;51.86894000;5.39848000;2023-05-28T01:25:04;102116.00;;;12.79
7830;BMP180;3960;51.86894000;5.39848000;2023-05-28T01:27:36;102102.03;;;12.77
7830;BMP180;3960;51.86894000;5.39848000;2023-05-28T01:30:02;102117.56;;;12.84
7830;BMP180;3960;51.86894000;5.39848000;2023-05-28T01:32:29;102112.91;;;12.77
7830;BMP180;3960;51.86894000;5.39848000;2023-05-28T01:34:54;102108.22;;;12.74
7830;BMP180;3960;51.86894000;5.39848000;2023-05-28T01:37:19;102063.97;;;12.46
7830;BMP180;3960;51.86894000;5.39848000;2023-05-28T01:39:47;102109.00;;;12.75
7830;BMP180;3960;51.86894000;5.39848000;2023-05-28T01:42:14;102058.91;;;12.44
7830;BMP180;3960;51.86894000;5.39848000;2023-05-28T01:44:40;102104.75;;;12.67
7830;BMP180;3960;51.86894000;5.39848000;2023-05-28T01:47:06;102107.81;;;12.72
7830;BMP180;3960;51.86894000;5.39848000;2023-05-28T01:49:32;102096.94;;;12.65
7830;BMP180;3960;51.86894000;5.39848000;2023-05-28T01:51:57;102093.88;;;12.63
7830;BMP180;3960;51.86894000;5.39848000;2023-05-28T01:54:22;102096.59;;;12.63
7830;BMP180;3960;51.86894000;5.39848000;2023-05-28T01:56:48;102082.59;;;12.51
7830;BMP180;3960;51.86894000;5.39848000;2023-05-28T01:59:13;102074.81;;;12.49
7830;BMP180;3960;51.86894000;5.39848000;2023-05-28T02:01:41;102104.75;;;12.63
7830;BMP180;3960;51.86894000;5.39848000;2023-05-28T02:04:06;102114.81;;;12.63
7830;BMP180;3960;51.86894000;5.39848000;2023-05-28T02:06:34;102089.19;;;12.50
7830;BMP180;3960;51.86894000;5.39848000;2023-05-28T02:09:00;102095.03;;;12.52
7830;BMP180;3960;51.86894000;5.39848000;2023-05-28T02:11:25;102095.78;;;12.45
7830;BMP180;3960;51.86894000;5.39848000;2023-05-28T02:13:51;102086.09;;;12.38
7830;BMP180;3960;51.86894000;5.39848000;2023-05-28T02:16:17;102096.16;;;12.47
7830;BMP180;3960;51.86894000;5.39848000;2023-05-28T02:18:43;102082.19;;;12.38
7830;BMP180;3960;51.86894000;5.39848000;2023-05-28T02:21:09;102082.19;;;12.32
7830;BMP180;3960;51.86894000;5.39848000;2023-05-28T02:23:37;102100.44;;;12.38
7830;BMP180;3960;51.86894000;5.39848000;2023-05-28T02:26:03;102104.69;;;12.36
7830;BMP180;3960;51.86894000;5.39848000;2023-05-28T02:28:28;102114.00;;;12.35
7830;BMP180;3960;51.86894000;5.39848000;2023-05-28T02:30:53;102108.94;;;12.26
7830;BMP180;3960;51.86894000;5.39848000;2023-05-28T02:33:18;102112.44;;;12.27
7830;BMP180;3960;51.86894000;5.39848000;2023-05-28T02:35:44;102099.22;;;12.18
7830;BMP180;3960;51.86894000;5.39848000;2023-05-28T02:38:10;102097.28;;;12.08
7830;BMP180;3960;51.86894000;5.39848000;2023-05-28T02:40:36;102086.00;;;12.06
7830;BMP180;3960;51.86894000;5.39848000;2023-05-28T02:43:04;102084.44;;;12.05
7830;BMP180;3960;51.86894000;5.39848000;2023-05-28T02:45:29;102108.91;;;12.09
7830;BMP180;3960;51.86894000;5.39848000;2023-05-28T02:47:55;102089.09;;;11.98
7830;BMP180;3960;51.86894000;5.39848000;2023-05-28T02:50:20;102078.22;;;11.91
7830;BMP180;3960;51.86894000;5.39848000;2023-05-28T02:52:45;102031.19;;;11.63
7830;BMP180;3960;51.86894000;5.39848000;2023-05-28T02:55:11;102092.56;;;11.98
7830;BMP180;3960;51.86894000;5.39848000;2023-05-28T02:57:36;102103.03;;;12.00
7830;BMP180;3960;51.86894000;5.39848000;2023-05-28T03:00:01;102074.28;;;11.81
7830;BMP180;3960;51.86894000;5.39848000;2023-05-28T03:02:26;102105.78;;;11.96
7830;BMP180;3960;51.86894000;5.39848000;2023-05-28T03:04:52;102112.72;;;11.94
7830;BMP180;3960;51.86894000;5.39848000;2023-05-28T03:07:18;102097.56;;;11.82
7830;BMP180;3960;51.86894000;5.39848000;2023-05-28T03:09:43;102120.84;;;11.90
7830;BMP180;3960;51.86894000;5.39848000;2023-05-28T03:12:08;102116.56;;;11.79
7830;BMP180;3960;51.86894000;5.39848000;2023-05-28T03:14:33;102110.72;;;11.77
7830;BMP180;3960;51.86894000;5.39848000;2023-05-28T03:16:59;102107.59;;;11.71
7830;BMP180;3960;51.86894000;5.39848000;2023-05-28T03:19:24;102104.84;;;11.68
7830;BMP180;3960;51.86894000;5.39848000;2023-05-28T03:21:49;102110.72;;;11.77
7830;BMP180;3960;51.86894000;5.39848000;2023-05-28T03:24:15;102113.78;;;11.68
7830;BMP180;3960;51.86894000;5.39848000;2023-05-28T03:26:40;102114.56;;;11.72
7830;BMP180;3960;51.86894000;5.39848000;2023-05-28T03:29:05;102114.97;;;11.71
7830;BMP180;3960;51.86894000;5.39848000;2023-05-28T03:31:42;102124.25;;;11.70
7830;BMP180;3960;51.86894000;5.39848000;2023-05-28T03:34:08;102093.13;;;11.50
7830;BMP180;3960;51.86894000;5.39848000;2023-05-28T03:36:34;102083.78;;;11.44
7830;BMP180;3960;51.86894000;5.39848000;2023-05-28T03:38:59;102098.19;;;11.52
7830;BMP180;3960;51.86894000;5.39848000;2023-05-28T03:41:24;102103.28;;;11.57
7830;BMP180;3960;51.86894000;5.39848000;2023-05-28T03:43:51;102118.06;;;11.66
7830;BMP180;3960;51.86894000;5.39848000;2023-05-28T03:46:16;102108.34;;;11.62
7830;BMP180;3960;51.86894000;5.39848000;2023-05-28T03:48:41;102117.63;;;11.61
7830;BMP180;3960;51.86894000;5.39848000;2023-05-28T03:51:06;102118.41;;;11.64
7830;BMP180;3960;51.86894000;5.39848000;2023-05-28T03:53:32;102111.44;;;11.60
7830;BMP180;3960;51.86894000;5.39848000;2023-05-28T03:55:58;102087.28;;;11.48
7830;BMP180;3960;51.86894000;5.39848000;2023-05-28T03:58:23;102129.28;;;11.68
7830;BMP180;3960;51.86894000;5.39848000;2023-05-28T04:00:48;102128.94;;;11.69
7830;BMP180;3960;51.86894000;5.39848000;2023-05-28T04:03:13;102123.06;;;11.64
7830;BMP180;3960;51.86894000;5.39848000;2023-05-28T04:05:39;102114.16;;;11.60
7830;BMP180;3960;51.86894000;5.39848000;2023-05-28T04:08:04;102121.13;;;11.64
7830;BMP180;3960;51.86894000;5.39848000;2023-05-28T04:10:29;102109.88;;;11.59
7830;BMP180;3960;51.86894000;5.39848000;2023-05-28T04:12:55;102109.88;;;11.59
7830;BMP180;3960;51.86894000;5.39848000;2023-05-28T04:15:21;102128.94;;;11.73
7830;BMP180;3960;51.86894000;5.39848000;2023-05-28T04:17:46;102127.75;;;11.70
7830;BMP180;3960;51.86894000;5.39848000;2023-05-28T04:20:12;102129.31;;;11.75
7830;BMP180;3960;51.86894000;5.39848000;2023-05-28T04:22:37;102118.78;;;11.63
7830;BMP180;3960;51.86894000;5.39848000;2023-05-28T04:25:02;102145.63;;;11.78
7830;BMP180;3960;51.86894000;5.39848000;2023-05-28T04:27:28;102131.25;;;11.74
7830;BMP180;3960;51.86894000;5.39848000;2023-05-28T04:29:53;102145.25;;;11.80
7830;BMP180;3960;51.86894000;5.39848000;2023-05-28T04:32:20;102146.44;;;11.86
7830;BMP180;3960;51.86894000;5.39848000;2023-05-28T04:34:45;102124.25;;;11.70
7830;BMP180;3960;51.86894000;5.39848000;2023-05-28T04:37:12;102115.34;;;11.66
7830;BMP180;3960;51.86894000;5.39848000;2023-05-28T04:39:37;102150.34;;;11.88
7830;BMP180;3960;51.86894000;5.39848000;2023-05-28T04:42:03;102153.88;;;11.99
7830;BMP180;3960;51.86894000;5.39848000;2023-05-28T04:44:29;102127.44;;;11.86
7830;BMP180;3960;51.86894000;5.39848000;2023-05-28T04:46:55;102139.53;;;11.99
7830;BMP180;3960;51.86894000;5.39848000;2023-05-28T04:49:24;102153.13;;;12.13
7830;BMP180;3960;51.86894000;5.39848000;2023-05-28T04:51:49;102153.56;;;12.22
7830;BMP180;3960;51.86894000;5.39848000;2023-05-28T04:54:15;102135.31;;;12.15
7830;BMP180;3960;51.86894000;5.39848000;2023-05-28T04:56:40;102139.22;;;12.25
7830;BMP180;3960;51.86894000;5.39848000;2023-05-28T04:59:05;102160.63;;;12.43
7830;BMP180;3960;51.86894000;5.39848000;2023-05-28T05:01:34;102159.47;;;12.51
7830;BMP180;3960;51.86894000;5.39848000;2023-05-28T05:04:00;102140.03;;;12.46
7830;BMP180;3960;51.86894000;5.39848000;2023-05-28T05:06:25;102150.94;;;12.60
7830;BMP180;3960;51.86894000;5.39848000;2023-05-28T05:08:50;102151.31;;;12.65
7830;BMP180;3960;51.86894000;5.39848000;2023-05-28T05:11:16;102135.81;;;12.66
7830;BMP180;3960;51.86894000;5.39848000;2023-05-28T05:13:41;102161.84;;;12.81
7830;BMP180;3960;51.86894000;5.39848000;2023-05-28T05:16:06;102154.44;;;12.85
7830;BMP180;3960;51.86894000;5.39848000;2023-05-28T05:18:32;102176.63;;;13.04
7830;BMP180;3960;51.86894000;5.39848000;2023-05-28T05:20:57;102175.84;;;13.11
7830;BMP180;3960;51.86894000;5.39848000;2023-05-28T05:23:23;102164.97;;;13.14
7830;BMP180;3960;51.86894000;5.39848000;2023-05-28T05:25:48;102177.78;;;13.24
7830;BMP180;3960;51.86894000;5.39848000;2023-05-28T05:28:13;102161.50;;;13.13
7830;BMP180;3960;51.86894000;5.39848000;2023-05-28T05:30:38;102184.41;;;13.30
7830;BMP180;3960;51.86894000;5.39848000;2023-05-28T05:33:04;102152.53;;;13.20
7830;BMP180;3960;51.86894000;5.39848000;2023-05-28T05:35:29;102157.56;;;13.28
7830;BMP180;3960;51.86894000;5.39848000;2023-05-28T05:37:55;102149.81;;;13.27
7830;BMP180;3960;51.86894000;5.39848000;2023-05-28T05:40:20;102167.28;;;13.33
7830;BMP180;3960;51.86894000;5.39848000;2023-05-28T05:42:45;102175.03;;;13.41
7830;BMP180;3960;51.86894000;5.39848000;2023-05-28T05:45:11;102184.00;;;13.42
7830;BMP180;3960;51.86894000;5.39848000;2023-05-28T05:47:36;102175.03;;;13.45
7830;BMP180;3960;51.86894000;5.39848000;2023-05-28T05:50:03;102182.81;;;13.50
7830;BMP180;3960;51.86894000;5.39848000;2023-05-28T05:52:29;102186.31;;;13.54
7830;BMP180;3960;51.86894000;5.39848000;2023-05-28T05:54:55;102179.31;;;13.53
7830;BMP180;3960;51.86894000;5.39848000;2023-05-28T05:57:20;102163.75;;;13.50
7830;BMP180;3960;51.86894000;5.39848000;2023-05-28T05:59:45;102186.28;;;13.64
7830;BMP180;3960;51.86894000;5.39848000;2023-05-28T06:02:10;102162.56;;;13.58
7830;BMP180;3960;51.86894000;5.39848000;2023-05-28T06:04:36;102176.88;;;13.82
7830;BMP180;3960;51.86894000;5.39848000;2023-05-28T06:07:01;102168.22;;;14.15
7830;BMP180;3960;51.86894000;5.39848000;2023-05-28T06:09:32;102175.53;;;14.36
7830;BMP180;3960;51.86894000;5.39848000;2023-05-28T06:11:57;102186.25;;;14.67
7830;BMP180;3960;51.86894000;5.39848000;2023-05-28T06:14:23;102186.47;;;14.90
7830;BMP180;3960;51.86894000;5.39848000;2023-05-28T06:16:48;102176.38;;;15.37
7830;BMP180;3960;51.86894000;5.39848000;2023-05-28T06:19:14;102193.31;;;15.92
7830;BMP180;3960;51.86894000;5.39848000;2023-05-28T06:21:39;102177.25;;;16.27
7830;BMP180;3960;51.86894000;5.39848000;2023-05-28T06:24:05;102182.28;;;16.88
7830;BMP180;3960;51.86894000;5.39848000;2023-05-28T06:26:31;102170.66;;;17.30
7830;BMP180;3960;51.86894000;5.39848000;2023-05-28T06:28:56;102190.53;;;17.76
7830;BMP180;3960;51.86894000;5.39848000;2023-05-28T06:31:22;102176.91;;;18.12
7830;BMP180;3960;51.86894000;5.39848000;2023-05-28T06:33:48;102174.34;;;18.40
7830;BMP180;3960;51.86894000;5.39848000;2023-05-28T06:36:13;102179.63;;;18.82
7830;BMP180;3960;51.86894000;5.39848000;2023-05-28T06:38:38;102183.25;;;19.27
7830;BMP180;3960;51.86894000;5.39848000;2023-05-28T06:41:04;102143.69;;;19.24
7830;BMP180;3960;51.86894000;5.39848000;2023-05-28T06:43:29;102144.03;;;19.26
7830;BMP180;3960;51.86894000;5.39848000;2023-05-28T06:45:54;102152.78;;;19.50
7830;BMP180;3960;51.86894000;5.39848000;2023-05-28T06:48:20;102168.53;;;19.77
7830;BMP180;3960;51.86894000;5.39848000;2023-05-28T06:50:46;102160.88;;;19.85
7830;BMP180;3960;51.86894000;5.39848000;2023-05-28T06:53:11;102161.47;;;20.05
7830;BMP180;3960;51.86894000;5.39848000;2023-05-28T06:55:36;102145.22;;;20.10
7830;BMP180;3960;51.86894000;5.39848000;2023-05-28T06:58:02;102183.00;;;20.47
7830;BMP180;3960;51.86894000;5.39848000;2023-05-28T07:00:27;102170.69;;;20.76
7830;BMP180;3960;51.86894000;5.39848000;2023-05-28T07:02:52;102119.69;;;20.84
7830;BMP180;3960;51.86894000;5.39848000;2023-05-28T07:05:18;102193.09;;;21.58
7830;BMP180;3960;51.86894000;5.39848000;2023-05-28T07:07:43;102172.59;;;21.59
7830;BMP180;3960;51.86894000;5.39848000;2023-05-28T07:10:08;102199.03;;;21.91
7830;BMP180;3960;51.86894000;5.39848000;2023-05-28T07:12:35;102194.81;;;21.99
7830;BMP180;3960;51.86894000;5.39848000;2023-05-28T07:15:01;102181.88;;;22.17
7830;BMP180;3960;51.86894000;5.39848000;2023-05-28T07:17:26;102156.34;;;22.25
7830;BMP180;3960;51.86894000;5.39848000;2023-05-28T07:19:51;102194.50;;;22.48
7830;BMP180;3960;51.86894000;5.39848000;2023-05-28T07:22:17;102160.06;;;22.31
7830;BMP180;3960;51.86894000;5.39848000;2023-05-28T07:24:42;102199.06;;;22.73
7830;BMP180;3960;51.86894000;5.39848000;2023-05-28T07:27:08;102160.38;;;22.73
7830;BMP180;3960;51.86894000;5.39848000;2023-05-28T07:29:36;102193.50;;;23.12
7830;BMP180;3960;51.86894000;5.39848000;2023-05-28T07:32:04;102201.66;;;23.15
7830;BMP180;3960;51.86894000;5.39848000;2023-05-28T07:34:30;102123.41;;;22.70
7830;BMP180;3960;51.86894000;5.39848000;2023-05-28T07:36:55;102151.75;;;23.19
7830;BMP180;3960;51.86894000;5.39848000;2023-05-28T07:39:23;102157.91;;;23.41
7830;BMP180;3960;51.86894000;5.39848000;2023-05-28T07:41:48;102149.31;;;23.30
7830;BMP180;3960;51.86894000;5.39848000;2023-05-28T07:44:14;102188.31;;;23.41
7830;BMP180;3960;51.86894000;5.39848000;2023-05-28T07:46:40;102160.97;;;23.16
7830;BMP180;3960;51.86894000;5.39848000;2023-05-28T07:49:08;102205.09;;;23.64
7830;BMP180;3960;51.86894000;5.39848000;2023-05-28T07:51:38;102183.88;;;23.61
7830;BMP180;3960;51.86894000;5.39848000;2023-05-28T07:54:04;102198.47;;;24.15
7830;BMP180;3960;51.86894000;5.39848000;2023-05-28T07:56:29;102204.53;;;24.46
7830;BMP180;3960;51.86894000;5.39848000;2023-05-28T07:58:55;102174.84;;;24.37
7830;BMP180;3960;51.86894000;5.39848000;2023-05-28T08:01:21;102149.81;;;24.23
7830;BMP180;3960;51.86894000;5.39848000;2023-05-28T08:03:46;102194.19;;;24.88
7830;BMP180;3960;51.86894000;5.39848000;2023-05-28T08:06:17;102135.69;;;24.62
7830;BMP180;3960;51.86894000;5.39848000;2023-05-28T08:08:43;102146.47;;;24.60
7830;BMP180;3960;51.86894000;5.39848000;2023-05-28T08:11:08;102153.03;;;24.72
7830;BMP180;3960;51.86894000;5.39848000;2023-05-28T08:13:36;102192.84;;;24.83
7830;BMP180;3960;51.86894000;5.39848000;2023-05-28T08:16:02;102187.56;;;24.85
7830;BMP180;3960;51.86894000;5.39848000;2023-05-28T08:18:27;102183.91;;;24.38
7830;BMP180;3960;51.86894000;5.39848000;2023-05-28T08:20:53;102171.00;;;23.85
7830;BMP180;3960;51.86894000;5.39848000;2023-05-28T08:23:18;102186.38;;;23.86
7830;BMP180;3960;51.86894000;5.39848000;2023-05-28T08:25:43;102187.88;;;23.69
7830;BMP180;3960;51.86894000;5.39848000;2023-05-28T08:28:08;102187.09;;;23.42
7830;BMP180;3960;51.86894000;5.39848000;2023-05-28T08:30:35;102172.81;;;23.25
7830;BMP180;3960;51.86894000;5.39848000;2023-05-28T08:33:00;102170.81;;;23.17
7830;BMP180;3960;51.86894000;5.39848000;2023-05-28T08:35:26;102172.03;;;23.16
7830;BMP180;3960;51.86894000;5.39848000;2023-05-28T08:37:51;102176.97;;;23.48
7830;BMP180;3960;51.86894000;5.39848000;2023-05-28T08:40:17;102180.06;;;23.76
7830;BMP180;3960;51.86894000;5.39848000;2023-05-28T08:42:42;102171.75;;;23.67
7830;BMP180;3960;51.86894000;5.39848000;2023-05-28T08:45:08;102180.34;;;23.87
7830;BMP180;3960;51.86894000;5.39848000;2023-05-28T08:47:36;102171.94;;;24.32
7830;BMP180;3960;51.86894000;5.39848000;2023-05-28T08:50:04;102180.94;;;24.59
7830;BMP180;3960;51.86894000;5.39848000;2023-05-28T08:52:33;102179.00;;;24.74
7830;BMP180;3960;51.86894000;5.39848000;2023-05-28T08:54:59;102164.47;;;24.56
7830;BMP180;3960;51.86894000;5.39848000;2023-05-28T08:57:30;102168.38;;;24.49
7830;BMP180;3960;51.86894000;5.39848000;2023-05-28T08:59:55;102185.22;;;24.69
7830;BMP180;3960;51.86894000;5.39848000;2023-05-28T09:02:25;102187.66;;;25.00
7830;BMP180;3960;51.86894000;5.39848000;2023-05-28T09:04:50;102184.78;;;25.41
7830;BMP180;3960;51.86894000;5.39848000;2023-05-28T09:07:16;102177.91;;;26.03
7830;BMP180;3960;51.86894000;5.39848000;2023-05-28T09:09:42;102183.47;;;26.46
7830;BMP180;3960;51.86894000;5.39848000;2023-05-28T09:12:12;102182.91;;;26.13
7830;BMP180;3960;51.86894000;5.39848000;2023-05-28T09:14:41;102157.56;;;25.68
7830;BMP180;3960;51.86894000;5.39848000;2023-05-28T09:17:08;102159.53;;;25.39
7830;BMP180;3960;51.86894000;5.39848000;2023-05-28T09:19:34;102161.38;;;25.56
7830;BMP180;3960;51.86894000;5.39848000;2023-05-28T09:22:00;102166.84;;;25.65
7830;BMP180;3960;51.86894000;5.39848000;2023-05-28T09:24:29;102153.06;;;25.56
7830;BMP180;3960;51.86894000;5.39848000;2023-05-28T09:26:55;102157.88;;;25.70
7830;BMP180;3960;51.86894000;5.39848000;2023-05-28T09:29:22;102150.34;;;25.85
7830;BMP180;3960;51.86894000;5.39848000;2023-05-28T09:31:56;102157.78;;;26.22
7830;BMP180;3960;51.86894000;5.39848000;2023-05-28T09:34:28;102144.63;;;26.66
7830;BMP180;3960;51.86894000;5.39848000;2023-05-28T09:37:02;102152.03;;;26.55
7830;BMP180;3960;51.86894000;5.39848000;2023-05-28T09:39:28;102148.66;;;26.36
7830;BMP180;3960;51.86894000;5.39848000;2023-05-28T09:41:59;102156.13;;;26.59
7830;BMP180;3960;51.86894000;5.39848000;2023-05-28T09:44:30;102135.50;;;26.65
7830;BMP180;3960;51.86894000;5.39848000;2023-05-28T09:46:56;102136.53;;;26.68
7830;BMP180;3960;51.86894000;5.39848000;2023-05-28T09:49:21;102132.91;;;26.76
7830;BMP180;3960;51.86894000;5.39848000;2023-05-28T09:51:48;102127.28;;;27.11
7830;BMP180;3960;51.86894000;5.39848000;2023-05-28T09:54:17;102138.81;;;27.24
7830;BMP180;3960;51.86894000;5.39848000;2023-05-28T09:56:46;102145.28;;;27.35
7830;BMP180;3960;51.86894000;5.39848000;2023-05-28T09:59:13;102132.59;;;27.54
7830;BMP180;3960;51.86894000;5.39848000;2023-05-28T10:01:56;102143.09;;;27.64
7830;BMP180;3960;51.86894000;5.39848000;2023-05-28T10:04:31;102139.09;;;27.96
7830;BMP180;3960;51.86894000;5.39848000;2023-05-28T10:06:57;102133.41;;;28.10
7830;BMP180;3960;51.86894000;5.39848000;2023-05-28T10:09:23;102118.44;;;28.08
7830;BMP180;3960;51.86894000;5.39848000;2023-05-28T10:12:15;102148.13;;;28.16
7830;BMP180;3960;51.86894000;5.39848000;2023-05-28T10:14:42;102135.69;;;28.43
7830;BMP180;3960;51.86894000;5.39848000;2023-05-28T10:17:08;102149.09;;;28.13
7830;BMP180;3960;51.86894000;5.39848000;2023-05-28T10:19:34;102133.47;;;27.65
7830;BMP180;3960;51.86894000;5.39848000;2023-05-28T10:22:00;102131.22;;;27.44
7830;BMP180;3960;51.86894000;5.39848000;2023-05-28T10:24:26;102133.47;;;27.65
7830;BMP180;3960;51.86894000;5.39848000;2023-05-28T10:26:53;102141.25;;;27.81
7830;BMP180;3960;51.86894000;5.39848000;2023-05-28T10:29:18;102128.72;;;27.71
7830;BMP180;3960;51.86894000;5.39848000;2023-05-28T10:31:44;102138.66;;;28.03
7830;BMP180;3960;51.86894000;5.39848000;2023-05-28T10:34:16;102133.03;;;27.98
7830;BMP180;3960;51.86894000;5.39848000;2023-05-28T10:36:54;102113.41;;;27.81
7830;BMP180;3960;51.86894000;5.39848000;2023-05-28T10:39:19;102137.94;;;28.08
7830;BMP180;3960;51.86894000;5.39848000;2023-05-28T10:41:45;102130.34;;;28.08
7830;BMP180;3960;51.86894000;5.39848000;2023-05-28T10:44:10;102123.28;;;28.13
7830;BMP180;3960;51.86894000;5.39848000;2023-05-28T10:46:37;102108.28;;;28.05
7830;BMP180;3960;51.86894000;5.39848000;2023-05-28T10:49:14;102134.28;;;28.22
7830;BMP180;3960;51.86894000;5.39848000;2023-05-28T10:51:43;102132.66;;;27.85
7830;BMP180;3960;51.86894000;5.39848000;2023-05-28T10:57:10;102132.56;;;27.74
7830;BMP180;3960;51.86894000;5.39848000;2023-05-28T10:59:43;102129.34;;;27.81
7830;BMP180;3960;51.86894000;5.39848000;2023-05-28T11:02:10;102114.88;;;27.77
7830;BMP180;3960;51.86894000;5.39848000;2023-05-28T11:04:35;102124.81;;;27.83
7830;BMP180;3960;51.86894000;5.39848000;2023-05-28T11:07:02;102127.69;;;27.94
7830;BMP180;3960;51.86894000;5.39848000;2023-05-28T11:09:27;102122.34;;;27.91
7830;BMP180;3960;51.86894000;5.39848000;2023-05-28T11:11:57;102119.41;;;27.74
7830;BMP180;3960;51.86894000;5.39848000;2023-05-28T11:14:22;102115.03;;;27.68
7830;BMP180;3960;51.86894000;5.39848000;2023-05-28T11:16:48;102124.91;;;27.43
7830;BMP180;3960;51.86894000;5.39848000;2023-05-28T11:19:13;102135.47;;;27.39
7830;BMP180;3960;51.86894000;5.39848000;2023-05-28T11:21:54;102124.50;;;27.56
7830;BMP180;3960;51.86894000;5.39848000;2023-05-28T11:24:21;102133.75;;;27.93
7830;BMP180;3960;51.86894000;5.39848000;2023-05-28T11:26:46;102127.94;;;28.21
7830;BMP180;3960;51.86894000;5.39848000;2023-05-28T11:29:12;102122.94;;;28.31
7830;BMP180;3960;51.86894000;5.39848000;2023-05-28T11:31:39;102128.09;;;28.43
7830;BMP180;3960;51.86894000;5.39848000;2023-05-28T11:34:05;102126.50;;;28.73
7830;BMP180;3960;51.86894000;5.39848000;2023-05-28T11:36:43;102117.75;;;28.96
7830;BMP180;3960;51.86894000;5.39848000;2023-05-28T11:39:09;102105.06;;;28.90
7830;BMP180;3960;51.86894000;5.39848000;2023-05-28T11:41:34;102115.47;;;28.95
7830;BMP180;3960;51.86894000;5.39848000;2023-05-28T11:44:00;102120.78;;;28.87
7830;BMP180;3960;51.86894000;5.39848000;2023-05-28T11:46:26;102127.63;;;28.92
7830;BMP180;3960;51.86894000;5.39848000;2023-05-28T11:48:51;102123.16;;;29.11
7830;BMP180;3960;51.86894000;5.39848000;2023-05-28T11:51:19;102117.63;;;29.27
7830;BMP180;3960;51.86894000;5.39848000;2023-05-28T11:53:45;102107.94;;;29.12
7830;BMP180;3960;51.86894000;5.39848000;2023-05-28T11:56:11;102118.66;;;29.30
7830;BMP180;3960;51.86894000;5.39848000;2023-05-28T11:58:38;102122.41;;;29.16
7830;BMP180;3960;51.86894000;5.39848000;2023-05-28T12:01:06;102113.16;;;28.88
7830;BMP180;3960;51.86894000;5.39848000;2023-05-28T12:03:31;102103.75;;;28.80
7830;BMP180;3960;51.86894000;5.39848000;2023-05-28T12:05:56;102117.88;;;28.77
7830;BMP180;3960;51.86894000;5.39848000;2023-05-28T12:08:21;102100.38;;;28.71
7830;BMP180;3960;51.86894000;5.39848000;2023-05-28T12:10:47;102102.66;;;28.67
7830;BMP180;3960;51.86894000;5.39848000;2023-05-28T12:13:13;102114.31;;;28.71
7830;BMP180;3960;51.86894000;5.39848000;2023-05-28T12:15:38;102116.69;;;28.83
7830;BMP180;3960;51.86894000;5.39848000;2023-05-28T12:18:04;102093.94;;;29.01
7830;BMP180;3960;51.86894000;5.39848000;2023-05-28T12:20:33;102113.81;;;29.30
7830;BMP180;3960;51.86894000;5.39848000;2023-05-28T12:25:50;102101.88;;;29.24
7830;BMP180;3960;51.86894000;5.39848000;2023-05-28T12:28:18;102108.31;;;29.36
7830;BMP180;3960;51.86894000;5.39848000;2023-05-28T12:30:46;102109.00;;;29.25
7830;BMP180;3960;51.86894000;5.39848000;2023-05-28T12:33:15;102098.84;;;29.17